Time;durP1;ratioP1;P1;durP2;ratioP2;P2;SDS_P1;SDS_P2;PMS_P1;PMS_P2;Temp;Humidity;BMP_temperature;BMP_pressure;BME280_temperature;BME280_humidity;BME280_pressure;Samples;Min_cycle;Max_cycle;Signal;HPM_P1;HPM_P2
2021/06/05 00:00:32;;;;;;;8.52;3.47;;;16.00;56.50;;;;;;5034845;28;20017;-77
2021/06/05 00:03:00;;;;;;;7.13;3.70;;;16.00;56.70;;;;;;5030917;28;20112;-77
2021/06/05 00:05:28;;;;;;;6.40;3.88;;;15.90;56.90;;;;;;5022115;28;20036;-77
2021/06/05 00:07:55;;;;;;;5.72;3.70;;;15.90;56.90;;;;;;5028804;28;20029;-76
2021/06/05 00:10:43;;;;;;;8.18;3.95;;;15.80;57.20;;;;;;5013016;28;20067;-77
2021/06/05 00:13:13;;;;;;;8.23;4.68;;;15.80;59.00;;;;;;5022957;28;20030;-77
2021/06/05 00:15:43;;;;;;;8.20;3.95;;;15.80;57.70;;;;;;5034005;28;20029;-77
2021/06/05 00:18:09;;;;;;;8.82;4.38;;;15.70;58.00;;;;;;5026837;28;20022;-77
2021/06/05 00:20:35;;;;;;;5.85;3.83;;;15.60;58.00;;;;;;5012569;28;20021;-75
2021/06/05 00:23:04;;;;;;;7.28;3.90;;;15.60;58.30;;;;;;5052303;28;20115;-76
2021/06/05 00:25:31;;;;;;;7.63;4.10;;;15.60;58.20;;;;;;5053605;28;20025;-76
2021/06/05 00:27:57;;;;;;;7.40;3.58;;;15.60;58.30;;;;;;5052492;28;20029;-76
2021/06/05 00:30:24;;;;;;;6.18;3.80;;;15.50;58.30;;;;;;5048965;28;20032;-76
2021/06/05 00:32:50;;;;;;;8.68;3.97;;;15.50;58.40;;;;;;5051675;28;20044;-76
2021/06/05 00:35:16;;;;;;;7.18;3.67;;;15.50;58.70;;;;;;5052584;28;20032;-75
2021/06/05 00:37:41;;;;;;;8.70;4.07;;;15.40;58.70;;;;;;5052467;28;20021;-75
2021/06/05 00:40:11;;;;;;;7.63;4.30;;;15.40;58.80;;;;;;5045807;28;20466;-77
2021/06/05 00:42:37;;;;;;;6.32;3.83;;;15.40;59.10;;;;;;5030053;28;20040;-76
2021/06/05 00:45:06;;;;;;;6.45;3.85;;;15.40;59.10;;;;;;5039026;28;20048;-77
2021/06/05 00:47:31;;;;;;;6.90;3.92;;;15.30;59.20;;;;;;5052777;28;20029;-77
2021/06/05 00:49:57;;;;;;;8.38;4.15;;;15.30;59.30;;;;;;5051451;28;20370;-76
2021/06/05 00:52:26;;;;;;;5.72;3.80;;;15.30;59.70;;;;;;5051566;28;20033;-76
2021/06/05 00:54:51;;;;;;;6.95;3.47;;;15.20;59.60;;;;;;5033037;28;20033;-77
2021/06/05 00:57:17;;;;;;;8.98;4.55;;;15.10;59.70;;;;;;5045520;28;20512;-76
2021/06/05 00:59:43;;;;;;;6.25;3.63;;;15.10;60.00;;;;;;5053210;28;20386;-77
2021/06/05 01:02:09;;;;;;;7.13;3.90;;;15.00;60.10;;;;;;5052070;28;20036;-78
2021/06/05 01:04:36;;;;;;;6.85;3.88;;;15.00;60.70;;;;;;5063004;28;20028;-77
2021/06/05 01:07:08;;;;;;;5.93;4.20;;;15.00;60.60;;;;;;5022885;28;20033;-77
2021/06/05 01:09:57;;;;;;;5.35;3.42;;;14.90;60.80;;;;;;5052321;28;20033;-77
2021/06/05 01:12:36;;;;;;;20.63;18.17;;;14.90;60.90;;;;;;5053500;28;20378;-77
2021/06/05 01:15:08;;;;;;;14.93;9.52;;;14.80;60.80;;;;;;5045922;28;20029;-77
2021/06/05 01:17:38;;;;;;;10.05;7.15;;;14.70;60.90;;;;;;5052775;28;20025;-77
2021/06/05 01:20:25;;;;;;;12.68;6.57;;;14.70;61.10;;;;;;5041042;28;22538;-76
2021/06/05 01:23:28;;;;;;;7.03;4.53;;;14.60;61.80;;;;;;5050773;28;20052;-77
2021/06/05 01:26:09;;;;;;;6.65;4.50;;;14.60;62.80;;;;;;5048059;28;20080;-77
2021/06/05 01:29:07;;;;;;;9.60;4.38;;;14.50;61.40;;;;;;5051221;28;20031;-75
2021/06/05 01:31:38;;;;;;;7.53;4.30;;;14.50;63.90;;;;;;5021137;28;20037;-75
2021/06/05 01:34:05;;;;;;;7.32;4.70;;;14.40;61.70;;;;;;5052521;28;20021;-75
2021/06/05 01:36:34;;;;;;;8.13;4.43;;;14.40;62.00;;;;;;5042256;28;20046;-75
2021/06/05 01:39:06;;;;;;;7.82;4.13;;;14.30;63.00;;;;;;5050939;28;20032;-75
2021/06/05 01:41:34;;;;;;;9.40;4.25;;;14.30;63.50;;;;;;5059257;28;20021;-74
2021/06/05 01:44:02;;;;;;;7.28;3.65;;;14.30;62.60;;;;;;5059976;28;20024;-75
2021/06/05 01:46:43;;;;;;;6.53;4.07;;;14.30;62.90;;;;;;5035894;28;20037;-74
2021/06/05 01:49:09;;;;;;;7.70;4.13;;;14.30;63.30;;;;;;5051010;28;20047;-75
2021/06/05 01:51:44;;;;;;;5.97;3.88;;;14.30;63.50;;;;;;5044018;28;20109;-75
2021/06/05 01:54:19;;;;;;;7.85;3.90;;;14.30;63.70;;;;;;5052220;28;20044;-75
2021/06/05 01:56:54;;;;;;;5.90;3.83;;;14.30;64.00;;;;;;5045927;28;20025;-77
2021/06/05 01:59:21;;;;;;;6.32;3.97;;;14.30;63.70;;;;;;5032211;28;20025;-77
2021/06/05 02:01:47;;;;;;;6.70;3.60;;;14.30;63.80;;;;;;5052515;28;20092;-77
2021/06/05 02:04:14;;;;;;;7.25;4.20;;;14.40;63.90;;;;;;5047490;28;20052;-77
2021/06/05 02:06:44;;;;;;;8.63;3.97;;;14.40;64.10;;;;;;5052171;28;20017;-76
2021/06/05 02:09:13;;;;;;;6.70;3.75;;;14.50;64.20;;;;;;5048552;28;20060;-77
2021/06/05 02:11:47;;;;;;;6.15;3.92;;;14.50;64.20;;;;;;5048598;28;20056;-77
2021/06/05 02:14:43;;;;;;;7.20;3.83;;;14.60;64.30;;;;;;5037442;28;20483;-76
2021/06/05 02:17:11;;;;;;;6.80;4.15;;;14.60;64.30;;;;;;5030731;28;20033;-77
2021/06/05 02:19:41;;;;;;;5.50;3.80;;;14.60;64.30;;;;;;5048346;28;20029;-77
2021/06/05 02:22:12;;;;;;;7.00;3.95;;;14.70;64.30;;;;;;5051985;28;20041;-77
2021/06/05 02:24:45;;;;;;;6.40;3.88;;;14.70;65.00;;;;;;5040193;28;20017;-77
2021/06/05 02:27:16;;;;;;;5.20;3.40;;;14.90;64.60;;;;;;5047721;28;20368;-76
2021/06/05 02:29:44;;;;;;;6.60;3.90;;;14.90;64.50;;;;;;5044121;28;20418;-76
2021/06/05 02:32:13;;;;;;;8.55;4.05;;;14.90;64.50;;;;;;5050968;28;20455;-76
2021/06/05 02:34:40;;;;;;;6.65;3.97;;;15.00;64.60;;;;;;5047165;28;20035;-77
2021/06/05 02:37:10;;;;;;;6.72;3.97;;;15.00;64.60;;;;;;5049943;28;20467;-76
2021/06/05 02:39:36;;;;;;;7.43;4.18;;;15.10;64.60;;;;;;5044338;28;20028;-77
2021/06/05 02:42:08;;;;;;;6.68;4.45;;;15.10;64.80;;;;;;5052332;28;20523;-76
2021/06/05 02:44:34;;;;;;;7.80;4.78;;;15.20;65.30;;;;;;5045488;28;20021;-77
2021/06/05 02:47:06;;;;;;;7.53;4.32;;;15.20;64.70;;;;;;5048743;28;20036;-77
2021/06/05 02:49:34;;;;;;;7.97;4.85;;;15.30;65.10;;;;;;5042119;28;20013;-78
2021/06/05 02:52:11;;;;;;;9.45;4.88;;;15.30;64.90;;;;;;5049819;28;20083;-77
2021/06/05 02:54:37;;;;;;;7.53;4.40;;;15.40;65.20;;;;;;5049475;28;20355;-78
2021/06/05 02:57:06;;;;;;;6.90;4.15;;;15.40;64.90;;;;;;5044814;28;20032;-77
2021/06/05 02:59:32;;;;;;;6.75;4.63;;;15.50;65.00;;;;;;5034685;28;20471;-77
2021/06/05 03:01:58;;;;;;;6.93;4.38;;;15.60;65.00;;;;;;5054095;28;20032;-77
2021/06/05 03:04:25;;;;;;;8.98;5.20;;;15.70;64.90;;;;;;5052218;28;20078;-77
2021/06/05 03:06:52;;;;;;;8.50;5.20;;;15.70;64.80;;;;;;5056868;28;20051;-77
2021/06/05 03:09:19;;;;;;;6.70;4.90;;;15.80;64.80;;;;;;5056949;28;20033;-77
2021/06/05 03:11:49;;;;;;;6.10;4.70;;;15.90;64.70;;;;;;5039631;28;20017;-77
2021/06/05 03:14:16;;;;;;;8.93;4.93;;;15.90;64.60;;;;;;5041780;28;20052;-75
2021/06/05 03:16:41;;;;;;;7.82;4.65;;;16.00;64.50;;;;;;5036992;28;20119;-75
2021/06/05 03:19:07;;;;;;;9.38;4.72;;;16.10;64.60;;;;;;5055259;28;20835;-78
2021/06/05 03:21:33;;;;;;;5.25;3.97;;;16.20;64.50;;;;;;5051160;28;20059;-76
2021/06/05 03:23:59;;;;;;;6.00;4.47;;;16.30;64.30;;;;;;5047237;28;20040;-76
2021/06/05 03:26:25;;;;;;;6.10;3.97;;;16.40;64.20;;;;;;5041622;28;20032;-76
2021/06/05 03:28:51;;;;;;;6.15;4.20;;;16.50;63.90;;;;;;5054853;28;20045;-76
2021/06/05 03:31:21;;;;;;;7.38;4.38;;;16.70;63.90;;;;;;5056475;28;20108;-75
2021/06/05 03:33:48;;;;;;;5.65;4.07;;;16.80;63.50;;;;;;5027241;28;20041;-76
2021/06/05 03:36:15;;;;;;;7.63;4.32;;;16.90;63.20;;;;;;5053389;28;20048;-76
2021/06/05 03:38:42;;;;;;;8.18;4.22;;;17.00;63.10;;;;;;5056281;28;20017;-76
2021/06/05 03:41:09;;;;;;;5.68;4.00;;;17.10;62.90;;;;;;5054705;28;20033;-73
2021/06/05 03:43:34;;;;;;;5.55;4.07;;;17.20;62.70;;;;;;5053416;28;20075;-76
2021/06/05 03:46:00;;;;;;;7.15;3.47;;;17.30;62.60;;;;;;5053352;28;20393;-75
2021/06/05 03:48:26;;;;;;;6.32;4.20;;;17.40;62.50;;;;;;5036438;28;20474;-76
2021/06/05 03:50:54;;;;;;;6.82;4.22;;;17.50;62.30;;;;;;5057791;28;20021;-77
2021/06/05 03:53:21;;;;;;;5.22;3.90;;;17.50;62.10;;;;;;5038569;28;20116;-77
2021/06/05 03:55:47;;;;;;;5.25;3.70;;;17.60;61.90;;;;;;5046225;28;20032;-76
2021/06/05 03:58:14;;;;;;;9.82;4.10;;;17.70;61.70;;;;;;5034182;28;20021;-76
2021/06/05 04:00:43;;;;;;;6.20;3.60;;;17.80;61.50;;;;;;5033913;28;20489;-76
2021/06/05 04:03:10;;;;;;;5.82;3.80;;;17.80;61.50;;;;;;5052169;28;20029;-77
2021/06/05 04:05:37;;;;;;;5.07;3.60;;;17.90;61.40;;;;;;5043128;28;20063;-77
2021/06/05 04:08:05;;;;;;;5.80;3.58;;;18.00;61.30;;;;;;5043751;28;20394;-77
2021/06/05 04:10:31;;;;;;;6.53;3.55;;;18.20;61.30;;;;;;5048483;28;20556;-76
2021/06/05 04:12:58;;;;;;;6.18;3.40;;;18.30;61.00;;;;;;5053243;28;20032;-77
2021/06/05 04:15:26;;;;;;;5.53;3.60;;;18.40;60.50;;;;;;5031391;28;20018;-77
2021/06/05 04:17:59;;;;;;;5.45;3.63;;;18.40;60.30;;;;;;5053430;28;20096;-78
2021/06/05 04:20:25;;;;;;;6.30;3.83;;;18.50;60.00;;;;;;5053271;28;20021;-77
2021/06/05 04:22:52;;;;;;;6.18;3.83;;;18.50;60.00;;;;;;5030575;28;20061;-76
2021/06/05 04:25:18;;;;;;;6.28;4.10;;;18.60;60.10;;;;;;5008492;28;20026;-77
2021/06/05 04:27:43;;;;;;;6.18;4.20;;;18.60;60.10;;;;;;5011661;28;20036;-76
2021/06/05 04:30:11;;;;;;;7.13;4.03;;;18.60;60.00;;;;;;5032273;28;20103;-76
2021/06/05 04:32:38;;;;;;;6.25;3.90;;;18.60;60.00;;;;;;5028028;28;20028;-76
2021/06/05 04:35:08;;;;;;;8.27;3.88;;;18.70;60.20;;;;;;5028511;28;20025;-76
2021/06/05 04:37:34;;;;;;;7.40;4.32;;;18.70;60.10;;;;;;5024210;28;20049;-77
2021/06/05 04:39:59;;;;;;;6.60;3.80;;;18.80;59.90;;;;;;5015657;28;20049;-76
2021/06/05 04:42:25;;;;;;;7.22;4.35;;;18.90;59.80;;;;;;5032550;28;20033;-77
2021/06/05 04:44:51;;;;;;;5.72;3.92;;;19.00;59.60;;;;;;5027050;28;20034;-77
2021/06/05 04:47:17;;;;;;;5.70;3.45;;;19.10;59.50;;;;;;5026460;28;20030;-76
2021/06/05 04:49:42;;;;;;;4.45;3.50;;;19.30;59.50;;;;;;5025273;28;20057;-76
2021/06/05 04:52:08;;;;;;;5.82;3.60;;;19.40;59.70;;;;;;5011523;28;20076;-77
2021/06/05 04:54:34;;;;;;;4.43;3.30;;;19.40;58.90;;;;;;5020207;28;20041;-76
2021/06/05 04:57:00;;;;;;;5.32;3.42;;;19.50;58.80;;;;;;5017186;28;20029;-77
2021/06/05 04:59:26;;;;;;;5.75;3.25;;;19.60;58.50;;;;;;5020677;28;20053;-76
2021/06/05 05:01:51;;;;;;;5.28;3.33;;;19.60;58.20;;;;;;5027941;28;20013;-76
2021/06/05 05:04:18;;;;;;;5.47;3.33;;;19.60;57.90;;;;;;5031012;28;20033;-76
2021/06/05 05:06:43;;;;;;;6.03;3.13;;;19.70;57.40;;;;;;5020800;28;20430;-75
2021/06/05 05:09:12;;;;;;;7.47;3.20;;;19.70;57.40;;;;;;5031066;28;20029;-76
2021/06/05 05:11:38;;;;;;;4.95;3.25;;;19.60;57.10;;;;;;5033202;28;20056;-77
2021/06/05 05:14:05;;;;;;;4.70;3.28;;;19.60;57.20;;;;;;5025754;28;20021;-75
2021/06/05 05:16:31;;;;;;;5.70;3.50;;;19.60;57.20;;;;;;5002947;28;20021;-76
2021/06/05 05:18:58;;;;;;;6.05;3.70;;;19.60;57.00;;;;;;5011743;28;20448;-75
2021/06/05 05:21:24;;;;;;;4.40;3.20;;;19.60;56.80;;;;;;5027172;28;20047;-77
2021/06/05 05:23:52;;;;;;;3.55;2.58;;;19.60;56.50;;;;;;5044059;28;20032;-76
2021/06/05 05:26:19;;;;;;;4.57;3.15;;;19.60;56.30;;;;;;5049020;28;20025;-77
2021/06/05 05:28:45;;;;;;;5.38;2.78;;;19.60;55.80;;;;;;5044071;28;20084;-77
2021/06/05 05:31:17;;;;;;;3.80;2.80;;;19.80;55.70;;;;;;5033364;28;20074;-77
2021/06/05 05:33:43;;;;;;;3.85;2.90;;;19.90;55.50;;;;;;5051633;28;20024;-77
2021/06/05 05:36:26;;;;;;;5.53;2.78;;;20.00;55.50;;;;;;5051838;28;20021;-77
2021/06/05 05:38:52;;;;;;;3.67;2.53;;;20.20;54.40;;;;;;5048938;28;20029;-77
2021/06/05 05:41:21;;;;;;;3.95;2.70;;;20.30;54.50;;;;;;5049570;28;20044;-77
2021/06/05 05:43:47;;;;;;;3.22;2.30;;;20.30;54.40;;;;;;5050459;28;20359;-77
2021/06/05 05:46:13;;;;;;;6.15;3.40;;;20.40;54.30;;;;;;5046330;28;20044;-76
2021/06/05 05:48:40;;;;;;;4.60;2.70;;;20.40;53.50;;;;;;5047002;28;20404;-77
2021/06/05 05:51:08;;;;;;;6.95;3.30;;;20.40;53.30;;;;;;5028411;28;20472;-77
2021/06/05 05:53:36;;;;;;;4.30;2.60;;;20.50;53.00;;;;;;5037408;28;20498;-77
2021/06/05 05:56:03;;;;;;;3.97;2.40;;;20.50;52.90;;;;;;5048039;28;20021;-78
2021/06/05 05:58:29;;;;;;;5.63;2.85;;;20.50;52.70;;;;;;5051655;28;20024;-77
2021/06/05 06:00:55;;;;;;;5.15;3.10;;;20.60;52.70;;;;;;5046834;28;20026;-77
2021/06/05 06:03:21;;;;;;;3.33;2.70;;;20.60;52.70;;;;;;5046454;28;20025;-77
2021/06/05 06:05:47;;;;;;;4.22;3.00;;;20.70;53.10;;;;;;5040066;28;20384;-77
2021/06/05 06:08:16;;;;;;;4.65;2.80;;;20.70;52.90;;;;;;5038281;28;20024;-76
2021/06/05 06:10:42;;;;;;;5.43;2.80;;;20.80;52.00;;;;;;5042224;28;20017;-77
2021/06/05 06:13:09;;;;;;;5.75;2.88;;;20.90;52.00;;;;;;5023869;28;20032;-77
2021/06/05 06:15:36;;;;;;;3.65;2.60;;;20.90;51.60;;;;;;5052808;28;20032;-77
2021/06/05 06:18:02;;;;;;;3.53;2.50;;;20.90;51.20;;;;;;5049347;28;20017;-77
2021/06/05 06:20:32;;;;;;;4.28;2.97;;;20.90;50.60;;;;;;5051831;28;20036;-76
2021/06/05 06:22:59;;;;;;;5.68;2.53;;;20.80;49.70;;;;;;5038487;28;20036;-75
2021/06/05 06:25:29;;;;;;;3.85;2.40;;;20.70;50.20;;;;;;5049381;28;20095;-76
2021/06/05 06:27:55;;;;;;;4.00;2.85;;;20.70;50.30;;;;;;5052051;28;20052;-75
2021/06/05 06:30:25;;;;;;;3.33;2.60;;;20.70;50.40;;;;;;5048587;28;20032;-77
2021/06/05 06:32:52;;;;;;;5.05;2.78;;;20.80;50.60;;;;;;5045829;28;20056;-78
2021/06/05 06:35:22;;;;;;;4.93;2.80;;;20.90;50.60;;;;;;5027534;28;20032;-77
2021/06/05 06:37:49;;;;;;;5.45;2.70;;;21.00;50.50;;;;;;5027916;28;20367;-76
2021/06/05 06:40:16;;;;;;;5.28;2.50;;;21.00;50.20;;;;;;5048095;28;20033;-75
2021/06/05 06:42:41;;;;;;;4.60;2.70;;;21.20;50.20;;;;;;5049656;28;20029;-76
2021/06/05 06:45:08;;;;;;;3.95;2.42;;;21.30;50.00;;;;;;5026148;28;20116;-76
2021/06/05 06:47:34;;;;;;;4.93;2.78;;;21.40;50.00;;;;;;5044406;28;20029;-76
2021/06/05 06:50:00;;;;;;;4.90;3.20;;;21.50;50.00;;;;;;5047328;28;20044;-76
2021/06/05 06:52:26;;;;;;;5.28;2.95;;;21.50;49.80;;;;;;5048384;28;20061;-76
2021/06/05 06:54:53;;;;;;;3.95;2.53;;;21.50;50.00;;;;;;5050226;28;20024;-76
2021/06/05 06:57:20;;;;;;;4.50;2.92;;;21.60;50.10;;;;;;5034696;28;20036;-77
2021/06/05 06:59:47;;;;;;;4.93;3.00;;;21.60;50.00;;;;;;5049504;28;20074;-77
2021/06/05 07:02:13;;;;;;;4.20;3.05;;;21.60;50.10;;;;;;5032779;28;20668;-76
2021/06/05 07:04:39;;;;;;;5.78;3.30;;;21.60;50.10;;;;;;5041856;28;20107;-77
2021/06/05 07:07:07;;;;;;;5.18;3.08;;;21.70;50.00;;;;;;5050207;28;20485;-76
2021/06/05 07:09:33;;;;;;;13.35;4.20;;;21.70;50.00;;;;;;5049839;28;20560;-77
2021/06/05 07:12:00;;;;;;;21.80;7.80;;;21.70;50.00;;;;;;5044867;28;20017;-76
2021/06/05 07:14:27;;;;;;;6.40;3.00;;;21.80;49.90;;;;;;5026407;28;20021;-77
2021/06/05 07:16:54;;;;;;;3.45;2.75;;;21.90;50.30;;;;;;5045251;28;20024;-76
2021/06/05 07:19:20;;;;;;;4.93;2.83;;;22.10;49.80;;;;;;5041802;28;20044;-77
2021/06/05 07:21:46;;;;;;;6.13;3.03;;;22.10;49.50;;;;;;5027871;28;20512;-77
2021/06/05 07:24:12;;;;;;;3.95;2.78;;;22.20;49.60;;;;;;5041393;28;20033;-76
2021/06/05 07:26:39;;;;;;;5.55;2.80;;;22.40;49.90;;;;;;5029350;28;20048;-75
2021/06/05 07:29:10;;;;;;;3.28;2.67;;;22.60;49.90;;;;;;5037400;28;20386;-76
2021/06/05 07:31:41;;;;;;;4.72;3.00;;;22.80;49.00;;;;;;5030968;28;20032;-76
2021/06/05 07:34:07;;;;;;;5.22;3.10;;;22.80;48.80;;;;;;5046739;28;20079;-75
2021/06/05 07:36:44;;;;;;;3.95;2.80;;;22.80;48.20;;;;;;5046826;28;20434;-75
2021/06/05 07:39:13;;;;;;;6.07;2.78;;;22.90;48.10;;;;;;5050806;28;20432;-75
2021/06/05 07:41:40;;;;;;;6.80;3.03;;;23.00;47.90;;;;;;5052484;28;20060;-76
2021/06/05 07:44:07;;;;;;;5.20;2.63;;;23.00;47.70;;;;;;5049917;28;20467;-75
2021/06/05 07:46:33;;;;;;;4.53;2.78;;;23.00;47.60;;;;;;5041854;28;20047;-76
2021/06/05 07:48:59;;;;;;;3.85;2.97;;;23.10;47.50;;;;;;5032051;28;20029;-75
2021/06/05 07:51:25;;;;;;;3.10;2.60;;;23.20;47.10;;;;;;5053945;28;20087;-75
2021/06/05 07:53:51;;;;;;;3.72;2.75;;;23.30;47.10;;;;;;5053068;28;20029;-76
2021/06/05 07:56:18;;;;;;;4.03;2.78;;;23.30;47.60;;;;;;5053892;28;20087;-75
2021/06/05 07:58:44;;;;;;;4.75;3.13;;;23.40;47.40;;;;;;5033699;28;20044;-76
2021/06/05 08:01:10;;;;;;;4.80;2.90;;;23.50;46.90;;;;;;5055190;28;20021;-75
2021/06/05 08:03:36;;;;;;;3.92;2.70;;;23.60;46.80;;;;;;5054247;28;20024;-75
2021/06/05 08:06:02;;;;;;;4.38;2.70;;;23.70;46.70;;;;;;5054219;28;20100;-74
2021/06/05 08:08:27;;;;;;;3.53;2.70;;;23.80;47.10;;;;;;5050920;28;20063;-75
2021/06/05 08:10:54;;;;;;;3.50;2.67;;;24.00;47.10;;;;;;5055772;28;20435;-76
2021/06/05 08:13:20;;;;;;;4.20;3.42;;;24.10;45.90;;;;;;5037478;28;20360;-77
2021/06/05 08:15:48;;;;;;;4.22;2.47;;;24.10;45.30;;;;;;5036518;28;20056;-76
2021/06/05 08:18:14;;;;;;;4.60;2.58;;;24.10;45.80;;;;;;5030487;28;20684;-76
2021/06/05 08:20:52;;;;;;;9.18;2.75;;;24.10;46.00;;;;;;5047454;28;20040;-75
2021/06/05 08:23:19;;;;;;;4.20;2.88;;;24.20;44.50;;;;;;5029003;28;20037;-75
2021/06/05 08:25:46;;;;;;;4.30;2.72;;;24.30;45.30;;;;;;5030946;28;20026;-74
2021/06/05 08:28:12;;;;;;;5.38;3.20;;;24.20;44.90;;;;;;5046236;28;20033;-76
2021/06/05 08:30:42;;;;;;;3.33;2.50;;;24.20;45.00;;;;;;5047900;28;20142;-77
2021/06/05 08:33:09;;;;;;;4.43;2.38;;;24.30;45.20;;;;;;5047929;28;20025;-76
2021/06/05 08:35:35;;;;;;;5.22;2.50;;;24.30;45.30;;;;;;5049381;28;20056;-76
2021/06/05 08:38:02;;;;;;;3.75;2.58;;;24.40;45.40;;;;;;5035122;28;20036;-76
2021/06/05 08:40:43;;;;;;;4.90;2.78;;;24.50;45.40;;;;;;5032488;28;20029;-76
2021/06/05 08:43:11;;;;;;;4.30;2.65;;;24.70;45.10;;;;;;5034615;28;20040;-77
2021/06/05 08:45:37;;;;;;;3.15;2.58;;;24.80;44.40;;;;;;5048208;28;20096;-76
2021/06/05 08:48:09;;;;;;;6.03;2.80;;;24.90;44.30;;;;;;5050405;28;20025;-77
2021/06/05 08:50:35;;;;;;;2.70;2.17;;;25.00;44.10;;;;;;5031782;28;20086;-75
2021/06/05 08:53:16;;;;;;;3.95;2.67;;;25.00;44.00;;;;;;5031944;28;20096;-76
2021/06/05 08:55:55;;;;;;;3.13;2.42;;;24.90;44.10;;;;;;5045162;28;20397;-76
2021/06/05 08:58:32;;;;;;;4.03;2.60;;;24.90;43.50;;;;;;5030014;28;20433;-75
2021/06/05 09:01:22;;;;;;;4.25;2.35;;;24.80;43.00;;;;;;5044582;28;20371;-76
2021/06/05 09:03:54;;;;;;;5.50;2.58;;;24.80;43.00;;;;;;5049890;28;20070;-75
2021/06/05 09:06:35;;;;;;;3.90;2.30;;;24.80;43.40;;;;;;5050302;28;20029;-77
2021/06/05 09:09:04;;;;;;;6.05;2.95;;;24.80;43.30;;;;;;5044522;28;20099;-76
2021/06/05 09:11:30;;;;;;;3.63;2.40;;;24.80;43.30;;;;;;5048539;28;20037;-76
2021/06/05 09:13:56;;;;;;;4.15;2.38;;;24.90;43.00;;;;;;5032487;28;20045;-76
2021/06/05 09:16:23;;;;;;;3.60;2.55;;;24.90;42.40;;;;;;5047782;28;20025;-75
2021/06/05 09:18:51;;;;;;;5.72;2.97;;;24.90;42.20;;;;;;5033444;28;20021;-76
2021/06/05 09:21:30;;;;;;;4.25;2.53;;;24.90;41.60;;;;;;5047357;28;20042;-75
2021/06/05 09:24:26;;;;;;;4.25;2.50;;;24.70;40.90;;;;;;5047218;28;20036;-75
2021/06/05 09:27:06;;;;;;;2.75;2.15;;;24.70;41.90;;;;;;5052129;28;20048;-76
2021/06/05 09:30:01;;;;;;;2.90;2.53;;;24.70;41.40;;;;;;5045849;28;20025;-77
2021/06/05 09:32:34;;;;;;;3.65;2.20;;;24.70;41.80;;;;;;4998656;28;20043;-77
2021/06/05 09:35:06;;;;;;;4.88;2.70;;;24.80;42.20;;;;;;5048874;28;20021;-76
2021/06/05 09:37:46;;;;;;;5.20;2.53;;;24.80;42.20;;;;;;5034994;28;20067;-77
2021/06/05 09:40:16;;;;;;;5.63;3.00;;;24.80;41.70;;;;;;5034613;28;20024;-77
2021/06/05 09:42:47;;;;;;;3.38;2.72;;;24.80;42.50;;;;;;5044193;28;20021;-77
2021/06/05 09:45:36;;;;;;;4.50;2.50;;;24.90;42.60;;;;;;5037758;28;20040;-76
2021/06/05 09:48:25;;;;;;;4.63;2.50;;;25.10;42.60;;;;;;5044924;28;20021;-78
2021/06/05 09:50:53;;;;;;;3.72;2.53;;;25.30;41.90;;;;;;5049168;28;20158;-77
2021/06/05 09:53:30;;;;;;;2.60;2.35;;;25.50;42.20;;;;;;5042820;28;20041;-76
2021/06/05 09:56:22;;;;;;;2.67;2.08;;;25.50;42.10;;;;;;5032217;28;20028;-77
2021/06/05 09:59:06;;;;;;;4.28;2.60;;;25.60;42.40;;;;;;5035031;28;20478;-76
2021/06/05 10:01:35;;;;;;;5.20;2.42;;;25.50;41.50;;;;;;5031589;28;20401;-76
2021/06/05 10:04:16;;;;;;;6.32;2.53;;;25.40;41.60;;;;;;5050288;28;20033;-76
2021/06/05 10:06:54;;;;;;;4.25;2.35;;;25.20;41.60;;;;;;5023872;28;20030;-77
2021/06/05 10:09:26;;;;;;;3.75;2.63;;;25.10;42.00;;;;;;5043789;28;20371;-75
2021/06/05 10:11:54;;;;;;;3.10;2.40;;;25.00;41.50;;;;;;5051711;28;20033;-74
2021/06/05 10:14:27;;;;;;;3.10;2.20;;;24.80;41.90;;;;;;5044780;28;20482;-76
2021/06/05 10:17:01;;;;;;;4.05;2.40;;;24.80;41.60;;;;;;5043003;28;20078;-77
2021/06/05 10:19:34;;;;;;;2.83;1.92;;;24.70;42.00;;;;;;5051450;28;20103;-76
2021/06/05 10:22:00;;;;;;;5.63;2.42;;;24.50;42.30;;;;;;5051564;28;20474;-76
2021/06/05 10:24:50;;;;;;;3.67;2.22;;;24.50;42.40;;;;;;5045752;28;20104;-76
2021/06/05 10:27:25;;;;;;;5.28;2.90;;;24.60;42.20;;;;;;5035072;28;20179;-76
2021/06/05 10:29:56;;;;;;;4.15;2.50;;;24.60;42.40;;;;;;5041616;28;20124;-74
2021/06/05 10:32:29;;;;;;;5.13;2.78;;;24.70;42.10;;;;;;5046962;28;20064;-77
2021/06/05 10:35:01;;;;;;;3.85;2.70;;;24.90;42.00;;;;;;5044128;28;20351;-76
2021/06/05 10:37:30;;;;;;;3.78;2.30;;;25.00;41.10;;;;;;5048167;28;20222;-76
2021/06/05 10:39:58;;;;;;;3.05;2.28;;;25.10;41.20;;;;;;5033760;28;20151;-76
2021/06/05 10:42:25;;;;;;;2.15;1.90;;;25.10;40.40;;;;;;5028669;28;20017;-76
2021/06/05 10:44:55;;;;;;;3.33;2.00;;;25.00;40.80;;;;;;5045242;28;20025;-77
2021/06/05 10:47:25;;;;;;;3.30;2.00;;;25.10;40.60;;;;;;5031204;28;20039;-76
2021/06/05 10:50:12;;;;;;;2.20;2.00;;;25.00;39.70;;;;;;5021779;28;20022;-76
2021/06/05 10:53:05;;;;;;;3.08;1.92;;;25.10;40.50;;;;;;5047296;28;20035;-77
2021/06/05 10:55:44;;;;;;;2.88;2.20;;;25.30;40.30;;;;;;5045392;28;20485;-77
2021/06/05 10:58:27;;;;;;;4.63;1.98;;;25.30;40.00;;;;;;5027947;28;20029;-75
2021/06/05 11:00:57;;;;;;;2.50;2.30;;;25.40;40.20;;;;;;5049523;28;20025;-77
2021/06/05 11:03:26;;;;;;;3.03;2.22;;;25.30;39.60;;;;;;5049897;28;20566;-76
2021/06/05 11:06:08;;;;;;;3.08;1.92;;;25.20;39.60;;;;;;5041629;28;20088;-77
2021/06/05 11:08:34;;;;;;;;;;;25.20;39.70;;;;;;5030489;28;20430;-76
2021/06/05 11:10:59;;;;;;;3.88;2.08;;;25.10;39.00;;;;;;5045600;28;20000;-75
2021/06/05 11:13:52;;;;;;;2.13;1.55;;;25.20;40.30;;;;;;5044731;28;20108;-76
2021/06/05 11:16:21;;;;;;;3.30;2.28;;;25.40;39.30;;;;;;5034503;28;20034;-77
2021/06/05 11:18:58;;;;;;;2.70;1.67;;;25.60;40.00;;;;;;5042837;28;20715;-77
2021/06/05 11:21:25;;;;;;;3.22;2.10;;;25.90;39.50;;;;;;5052193;28;20360;-76
2021/06/05 11:23:57;;;;;;;3.40;2.00;;;26.10;39.80;;;;;;5048012;28;20025;-76
2021/06/05 11:26:38;;;;;;;1.92;1.73;;;26.20;39.00;;;;;;5021209;28;20029;-76
2021/06/05 11:29:22;;;;;;;3.88;2.08;;;26.20;39.00;;;;;;5034727;28;20033;-76
2021/06/05 11:31:54;;;;;;;2.40;2.08;;;26.10;38.90;;;;;;5049390;28;20493;-76
2021/06/05 11:34:29;;;;;;;;;;;25.90;39.30;;;;;;5057505;28;20025;-77
2021/06/05 11:36:57;;;;;;;3.35;2.03;;;25.80;39.40;;;;;;5055394;28;19905;-77
2021/06/05 11:39:23;;;;;;;2.65;2.00;;;25.80;39.20;;;;;;5056162;28;20754;-76
2021/06/05 11:41:52;;;;;;;7.20;2.42;;;25.80;39.60;;;;;;5046042;28;20119;-77
2021/06/05 11:44:28;;;;;;;5.57;2.38;;;25.70;38.90;;;;;;5043237;28;20021;-77
2021/06/05 11:47:17;;;;;;;3.65;1.95;;;25.60;38.90;;;;;;5040596;28;20028;-75
2021/06/05 11:50:06;;;;;;;3.92;2.03;;;25.50;39.40;;;;;;5033618;28;20475;-76
2021/06/05 11:52:32;;;;;;;3.25;2.00;;;25.50;39.60;;;;;;5044280;28;20050;-77
2021/06/05 11:55:06;;;;;;;3.83;1.85;;;25.50;40.20;;;;;;5034429;28;20021;-77
2021/06/05 11:57:40;;;;;;;2.25;1.90;;;25.60;40.30;;;;;;5054105;28;20478;-77
2021/06/05 12:00:26;;;;;;;2.85;1.70;;;25.70;39.50;;;;;;5052923;28;20393;-76
2021/06/05 12:03:10;;;;;;;2.97;1.90;;;25.80;39.30;;;;;;5042456;28;20037;-78
2021/06/05 12:05:42;;;;;;;3.42;2.00;;;26.00;39.60;;;;;;5049752;28;20033;-76
2021/06/05 12:08:24;;;;;;;2.65;2.03;;;26.10;39.10;;;;;;5052482;28;20033;-76
2021/06/05 12:10:51;;;;;;;1.70;1.58;;;26.20;37.50;;;;;;5054114;28;20027;-76
2021/06/05 12:13:32;;;;;;;1.70;1.60;;;26.20;38.80;;;;;;5040868;28;20356;-77
2021/06/05 12:16:15;;;;;;;3.65;2.00;;;26.30;38.60;;;;;;5037356;28;20060;-76
2021/06/05 12:18:44;;;;;;;2.47;1.80;;;26.30;38.60;;;;;;5054752;28;20025;-77
2021/06/05 12:21:34;;;;;;;2.10;1.90;;;26.30;39.00;;;;;;5048050;28;20544;-77
2021/06/05 12:24:23;;;;;;;3.40;2.03;;;26.40;38.90;;;;;;5036219;28;20029;-77
2021/06/05 12:26:59;;;;;;;4.63;1.73;;;26.50;37.60;;;;;;5035559;28;20033;-76
2021/06/05 12:29:51;;;;;;;2.95;1.90;;;26.60;38.70;;;;;;5035060;28;20029;-77
2021/06/05 12:32:27;;;;;;;3.60;2.38;;;26.70;37.70;;;;;;5019861;28;20045;-76
2021/06/05 12:34:53;;;;;;;3.95;2.15;;;26.80;38.60;;;;;;5050430;28;20370;-77
2021/06/05 12:37:24;;;;;;;2.88;1.67;;;27.10;38.30;;;;;;5047957;28;20025;-76
2021/06/05 12:39:56;;;;;;;2.20;1.85;;;27.20;38.00;;;;;;5052004;28;20024;-77
2021/06/05 12:42:36;;;;;;;2.55;1.88;;;27.70;38.50;;;;;;5038913;28;20057;-77
2021/06/05 12:45:10;;;;;;;1.90;1.70;;;28.20;37.40;;;;;;5032888;28;20098;-77
2021/06/05 12:47:45;;;;;;;3.17;2.10;;;28.50;35.50;;;;;;5054568;28;20028;-76
2021/06/05 12:50:15;;;;;;;3.22;2.00;;;28.80;36.70;;;;;;5028871;28;20025;-77
2021/06/05 12:52:46;;;;;;;4.47;1.90;;;29.10;35.60;;;;;;5052299;28;20035;-76
2021/06/05 12:55:15;;;;;;;2.42;1.75;;;29.40;36.20;;;;;;5053599;28;20068;-77
2021/06/05 12:57:53;;;;;;;2.95;1.70;;;29.60;36.10;;;;;;5053680;28;20428;-76
2021/06/05 13:00:36;;;;;;;2.60;1.90;;;29.80;36.10;;;;;;5049046;28;20032;-77
2021/06/05 13:03:08;;;;;;;2.55;1.65;;;30.00;35.30;;;;;;5032366;28;20036;-77
2021/06/05 13:05:40;;;;;;;;;;;30.20;34.30;;;;;;5036236;28;20554;-75